createdAt,value
2018-08-30T00:00:33.269Z,56.39
2018-08-30T00:02:09.501Z,56.70
2018-08-30T00:03:46.830Z,56.81
2018-08-30T00:05:22.441Z,56.30
2018-08-30T00:06:57.818Z,56.34
2018-08-30T00:08:33.246Z,56.48
2018-08-30T00:10:09.395Z,56.44
2018-08-30T00:11:44.914Z,57.00
2018-08-30T00:13:20.232Z,56.95
2018-08-30T00:14:57.468Z,56.44
2018-08-30T00:16:33.429Z,57.10
2018-08-30T00:18:08.649Z,57.05
2018-08-30T00:19:43.905Z,57.04
2018-08-30T00:21:19.225Z,56.70
2018-08-30T00:22:54.882Z,57.16
2018-08-30T00:24:30.154Z,56.78
2018-08-30T00:26:06.479Z,56.71
2018-08-30T00:27:43.025Z,56.61
2018-08-30T00:29:19.541Z,57.13
2018-08-30T00:30:56.226Z,57.00
2018-08-30T00:32:32.509Z,57.22
2018-08-30T00:34:08.518Z,56.89
2018-08-30T00:35:45.521Z,56.80
2018-08-30T00:37:20.826Z,56.99
2018-08-30T00:38:57.628Z,56.95
2018-08-30T00:40:34.858Z,56.93
2018-08-30T00:42:10.907Z,57.37
2018-08-30T00:43:47.495Z,57.04
2018-08-30T00:45:24.053Z,57.64
2018-08-30T00:46:59.335Z,57.50
2018-08-30T00:48:37.786Z,57.07
2018-08-30T00:50:14.446Z,57.49
2018-08-30T00:51:50.742Z,57.41
2018-08-30T00:53:26.048Z,57.40
2018-08-30T00:55:05.791Z,57.29
2018-08-30T00:56:41.316Z,57.19
2018-08-30T00:58:16.603Z,57.76
2018-08-30T00:59:52.729Z,57.37
2018-08-30T01:01:31.084Z,57.59
2018-08-30T01:03:07.803Z,57.47
2018-08-30T01:04:43.483Z,57.84
2018-08-30T01:06:18.669Z,57.46
2018-08-30T01:07:54.783Z,57.51
2018-08-30T01:09:30.514Z,58.13
2018-08-30T01:11:07.552Z,58.08
2018-08-30T01:12:48.083Z,58.16
2018-08-30T01:14:24.523Z,57.56
2018-08-30T01:16:00.143Z,57.55
2018-08-30T01:17:36.832Z,57.95
2018-08-30T01:19:12.122Z,57.82
2018-08-30T01:20:47.671Z,57.76
2018-08-30T01:22:23.037Z,58.21
2018-08-30T01:23:58.805Z,57.83
2018-08-30T01:25:35.545Z,57.77
2018-08-30T01:27:18.646Z,57.89
2018-08-30T01:28:56.443Z,57.86
2018-08-30T01:30:32.526Z,58.42
2018-08-30T01:32:09.645Z,57.97
2018-08-30T01:33:45.013Z,58.56
2018-08-30T01:35:20.317Z,58.46
2018-08-30T01:36:56.515Z,57.94
2018-08-30T01:38:39.930Z,58.50
2018-08-30T01:40:15.584Z,58.57
2018-08-30T01:41:53.215Z,58.12
2018-08-30T01:43:29.684Z,58.47
2018-08-30T01:45:07.313Z,58.21
2018-08-30T01:46:43.130Z,58.78
2018-08-30T01:48:18.748Z,58.24
2018-08-30T01:49:54.565Z,58.26
2018-08-30T01:51:29.905Z,58.74
2018-08-30T01:53:05.347Z,58.79
2018-08-30T01:54:43.212Z,58.26
2018-08-30T01:56:19.058Z,58.35
2018-08-30T01:57:54.413Z,58.87
2018-08-30T01:59:29.729Z,58.38
2018-08-30T02:01:05.242Z,58.92
2018-08-30T02:02:40.908Z,58.61
2018-08-30T02:04:16.348Z,58.40
2018-08-30T02:05:51.850Z,58.76
2018-08-30T02:07:27.233Z,58.71
2018-08-30T02:09:03.323Z,58.42
2018-08-30T02:10:38.696Z,59.04
2018-08-30T02:12:13.984Z,59.01
2018-08-30T02:13:49.467Z,59.00
2018-08-30T02:15:25.434Z,59.12
2018-08-30T02:17:00.717Z,59.03
2018-08-30T02:18:36.987Z,58.48
2018-08-30T02:20:12.287Z,59.08
2018-08-30T02:21:47.896Z,59.10
2018-08-30T02:23:23.183Z,58.70
2018-08-30T02:24:58.512Z,58.97
2018-08-30T02:26:33.846Z,59.26
2018-08-30T02:28:09.805Z,58.78
2018-08-30T02:29:45.167Z,58.65
2018-08-30T02:31:20.629Z,59.20
2018-08-30T02:32:55.931Z,59.24
2018-08-30T02:34:32.095Z,58.76
2018-08-30T02:36:07.719Z,59.55
2018-08-30T02:37:43.205Z,58.95
2018-08-30T02:39:18.721Z,59.28
2018-08-30T02:40:54.417Z,58.84
2018-08-30T02:42:29.680Z,58.97
2018-08-30T02:44:05.343Z,58.80
2018-08-30T02:45:44.728Z,59.44
2018-08-30T02:47:20.658Z,59.49
2018-08-30T02:48:56.225Z,59.47
2018-08-30T02:50:31.622Z,59.46
2018-08-30T02:52:07.028Z,59.01
2018-08-30T02:53:43.412Z,59.19
2018-08-30T02:55:18.765Z,58.98
2018-08-30T02:56:54.438Z,59.52
2018-08-30T02:58:31.518Z,59.53
2018-08-30T03:00:08.957Z,59.04
2018-08-30T03:01:44.564Z,60.05
2018-08-30T03:03:20.440Z,59.04
2018-08-30T03:04:56.192Z,59.65
2018-08-30T03:06:31.810Z,59.60
2018-08-30T03:08:07.831Z,59.16
2018-08-30T03:09:48.832Z,59.75
2018-08-30T03:11:24.854Z,59.77
2018-08-30T03:13:01.455Z,59.53
2018-08-30T03:14:38.761Z,59.98
2018-08-30T03:16:14.876Z,59.79
2018-08-30T03:17:50.148Z,59.35
2018-08-30T03:19:25.749Z,59.20
2018-08-30T03:21:01.217Z,59.23
2018-08-30T03:22:37.225Z,59.79
2018-08-30T03:24:12.485Z,59.98
2018-08-30T03:25:48.054Z,59.79
2018-08-30T03:27:23.319Z,59.82
2018-08-30T03:28:58.574Z,59.76
2018-08-30T03:30:35.704Z,59.79
2018-08-30T03:32:11.252Z,60.21
2018-08-30T03:33:46.504Z,59.29
2018-08-30T03:35:27.079Z,59.80
2018-08-30T03:37:02.433Z,59.30
2018-08-30T03:38:38.217Z,59.38
2018-08-30T03:40:13.352Z,59.84
2018-08-30T03:41:48.559Z,59.46
2018-08-30T03:43:23.715Z,59.30
2018-08-30T03:44:59.239Z,59.37
2018-08-30T03:46:34.762Z,59.83
2018-08-30T03:48:09.906Z,59.95
2018-08-30T03:49:45.085Z,59.45
2018-08-30T03:51:21.432Z,59.84
2018-08-30T03:52:56.758Z,59.92
2018-08-30T03:54:32.515Z,59.43
2018-08-30T03:56:07.829Z,59.49
2018-08-30T03:57:43.624Z,59.55
2018-08-30T03:59:19.176Z,59.44
2018-08-30T04:00:54.494Z,59.44
2018-08-30T04:02:29.732Z,59.53
2018-08-30T04:04:06.087Z,60.07
2018-08-30T04:05:41.350Z,59.53
2018-08-30T04:07:16.504Z,59.48
2018-08-30T04:08:51.662Z,59.55
2018-08-30T04:10:28.570Z,60.03
2018-08-30T04:12:04.877Z,60.50
2018-08-30T04:13:40.196Z,59.57
2018-08-30T04:15:17.791Z,59.86
2018-08-30T04:16:53.419Z,59.68
2018-08-30T04:18:28.660Z,59.64
2018-08-30T04:20:07.000Z,60.09
2018-08-30T04:21:42.612Z,59.67
2018-08-30T04:23:18.327Z,60.12
2018-08-30T04:24:57.762Z,60.16
2018-08-30T04:26:34.546Z,60.29
2018-08-30T04:28:10.161Z,60.17
2018-08-30T04:29:45.814Z,59.64
2018-08-30T04:31:21.972Z,59.93
2018-08-30T04:32:58.511Z,59.74
2018-08-30T04:34:37.178Z,60.13
2018-08-30T04:36:14.157Z,59.69
2018-08-30T04:37:49.793Z,59.83
2018-08-30T04:39:25.051Z,59.69
2018-08-30T04:41:00.979Z,60.30
2018-08-30T04:42:36.620Z,59.82
2018-08-30T04:44:12.362Z,60.26
2018-08-30T04:45:49.338Z,60.40
2018-08-30T04:47:24.633Z,60.37
2018-08-30T04:48:59.894Z,59.88
2018-08-30T04:50:35.187Z,60.44
2018-08-30T04:52:14.804Z,59.82
2018-08-30T04:53:50.432Z,59.83
2018-08-30T04:55:25.804Z,59.84
2018-08-30T04:57:01.972Z,59.96
2018-08-30T04:58:41.050Z,60.52
2018-08-30T05:00:21.247Z,59.85
2018-08-30T05:01:57.048Z,59.95
2018-08-30T05:03:33.235Z,60.51
2018-08-30T05:05:09.211Z,60.44
2018-08-30T05:06:46.059Z,60.42
2018-08-30T05:08:21.382Z,60.46
2018-08-30T05:09:57.548Z,60.35
2018-08-30T05:11:32.763Z,59.97
2018-08-30T05:13:09.533Z,59.93
2018-08-30T05:14:44.880Z,60.44
2018-08-30T05:16:20.898Z,60.02
2018-08-30T05:17:56.530Z,60.56
2018-08-30T05:19:35.807Z,60.62
2018-08-30T05:21:11.018Z,60.04
2018-08-30T05:22:46.339Z,60.64
2018-08-30T05:24:22.376Z,60.61
2018-08-30T05:25:57.976Z,60.14
2018-08-30T05:27:38.101Z,60.11
2018-08-30T05:29:13.484Z,60.38
2018-08-30T05:30:50.671Z,60.29
2018-08-30T05:32:26.422Z,60.08
2018-08-30T05:34:01.804Z,60.90
2018-08-30T05:35:37.051Z,60.40
2018-08-30T05:37:13.474Z,60.65
2018-08-30T05:38:49.132Z,60.72
2018-08-30T05:40:24.353Z,60.40
2018-08-30T05:41:59.542Z,60.30
2018-08-30T05:43:35.509Z,60.23
2018-08-30T05:45:11.407Z,60.66
2018-08-30T05:46:47.249Z,60.52
2018-08-30T05:48:22.457Z,60.39
2018-08-30T05:49:57.623Z,60.85
2018-08-30T05:51:35.596Z,60.35
2018-08-30T05:53:10.847Z,60.80
2018-08-30T05:54:49.669Z,60.63
2018-08-30T05:56:26.804Z,60.38
2018-08-30T05:58:04.116Z,60.74
2018-08-30T05:59:39.407Z,60.80
2018-08-30T06:01:15.275Z,60.32
2018-08-30T06:02:50.488Z,60.92
2018-08-30T06:04:27.675Z,60.18
2018-08-30T06:06:02.843Z,60.94
2018-08-30T06:07:38.054Z,60.91
2018-08-30T06:09:14.931Z,60.95
2018-08-30T06:10:51.747Z,60.98
2018-08-30T06:14:08.596Z,60.35
2018-08-30T06:15:44.967Z,60.99
2018-08-30T06:17:23.784Z,60.39
2018-08-30T06:18:59.521Z,60.47
2018-08-30T06:20:34.770Z,60.45
2018-08-30T06:22:10.487Z,60.80
2018-08-30T06:23:48.920Z,60.81
2018-08-30T06:25:24.801Z,60.46
2018-08-30T06:27:03.697Z,60.42
2018-08-30T06:28:40.163Z,60.45
2018-08-30T06:30:21.214Z,60.42
2018-08-30T06:33:32.688Z,60.45
2018-08-30T06:35:15.698Z,60.95
2018-08-30T06:36:51.356Z,60.44
2018-08-30T06:38:28.535Z,61.10
2018-08-30T06:40:06.532Z,60.56
2018-08-30T06:41:42.253Z,60.53
2018-08-30T06:43:18.068Z,61.15
2018-08-30T06:44:54.256Z,60.83
2018-08-30T06:46:35.296Z,61.27
2018-08-30T06:48:11.511Z,60.62
2018-08-30T06:49:53.300Z,61.19
2018-08-30T06:51:28.487Z,60.74
2018-08-30T06:53:07.077Z,60.95
2018-08-30T06:54:43.204Z,60.57
2018-08-30T06:56:19.021Z,60.89
2018-08-30T06:57:57.265Z,61.09
2018-08-30T06:59:32.993Z,61.21
2018-08-30T07:01:10.476Z,60.69
2018-08-30T07:02:45.796Z,61.19
2018-08-30T07:04:22.976Z,60.74
2018-08-30T07:05:59.690Z,61.17
2018-08-30T07:07:36.516Z,61.28
2018-08-30T07:09:13.818Z,61.45
2018-08-30T07:10:49.240Z,60.94
2018-08-30T07:12:24.410Z,61.06
2018-08-30T07:14:02.463Z,60.77
2018-08-30T07:15:39.464Z,60.71
2018-08-30T07:17:14.889Z,61.14
2018-08-30T07:18:50.243Z,60.76
2018-08-30T07:20:25.887Z,60.77
2018-08-30T07:22:01.146Z,61.26
2018-08-30T07:23:40.533Z,60.81
2018-08-30T07:25:20.809Z,61.40
2018-08-30T07:27:06.511Z,60.74
2018-08-30T07:28:48.765Z,60.78
2018-08-30T07:30:26.801Z,61.40
2018-08-30T07:32:10.851Z,60.76
2018-08-30T07:33:46.776Z,61.13
2018-08-30T07:35:24.251Z,61.20
2018-08-30T07:37:02.679Z,60.94
2018-08-30T07:38:39.323Z,61.32
2018-08-30T07:42:12.310Z,60.71
2018-08-30T07:43:57.309Z,60.87
2018-08-30T07:45:33.834Z,61.52
2018-08-30T07:47:08.972Z,60.78
2018-08-30T07:48:44.269Z,61.37
2018-08-30T07:50:21.159Z,60.83
2018-08-30T07:51:57.652Z,61.42
2018-08-30T07:53:34.982Z,61.41
2018-08-30T07:55:10.285Z,61.33
2018-08-30T07:56:46.013Z,61.38
2018-08-30T07:58:21.338Z,60.80
2018-08-30T07:59:56.564Z,60.75
2018-08-30T08:04:52.871Z,61.33
2018-08-30T08:06:29.121Z,61.46
2018-08-30T08:08:04.469Z,60.83
2018-08-30T08:09:41.133Z,61.09
2018-08-30T08:11:18.015Z,60.88
2018-08-30T08:12:54.839Z,61.16
2018-08-30T08:14:30.117Z,60.98
2018-08-30T08:16:05.620Z,61.48
2018-08-30T08:17:40.909Z,61.46
2018-08-30T08:19:18.235Z,60.86
2018-08-30T08:20:54.743Z,60.64
2018-08-30T08:22:32.786Z,61.44
2018-08-30T08:24:10.404Z,60.84
2018-08-30T08:25:50.370Z,61.32
2018-08-30T08:27:29.582Z,60.99
2018-08-30T08:29:14.820Z,61.48
2018-08-30T08:30:51.747Z,61.03
2018-08-30T08:32:27.168Z,61.01
2018-08-30T08:34:04.392Z,61.15
2018-08-30T08:35:44.413Z,61.49
2018-08-30T08:37:20.147Z,61.60
2018-08-30T08:38:59.987Z,61.57
2018-08-30T08:40:38.909Z,61.49
2018-08-30T08:42:14.626Z,60.86
2018-08-30T08:44:00.084Z,61.52
2018-08-30T08:45:36.252Z,61.61
2018-08-30T08:47:12.747Z,60.94
2018-08-30T08:48:48.348Z,61.48
2018-08-30T08:50:23.976Z,60.98
2018-08-30T08:52:07.071Z,60.85
2018-08-30T08:53:48.010Z,61.56
2018-08-30T08:55:30.098Z,60.93
2018-08-30T08:57:05.442Z,61.28
2018-08-30T08:58:40.686Z,60.94
2018-08-30T09:00:19.785Z,61.30
2018-08-30T09:01:55.355Z,60.93
2018-08-30T09:03:31.123Z,61.08
2018-08-30T09:05:07.145Z,60.87
2018-08-30T09:06:43.920Z,61.39
2018-08-30T09:08:20.978Z,61.06
2018-08-30T09:09:56.446Z,60.76
2018-08-30T09:11:32.047Z,60.72
2018-08-30T09:13:15.607Z,60.81
2018-08-30T09:14:53.295Z,60.80
2018-08-30T09:16:32.587Z,61.24
2018-08-30T09:18:10.616Z,60.74
2018-08-30T09:19:47.753Z,61.06
2018-08-30T09:21:25.157Z,61.30
2018-08-30T09:23:05.205Z,61.11
2018-08-30T09:24:41.445Z,60.73
2018-08-30T09:26:21.773Z,61.10
2018-08-30T09:27:59.748Z,60.59
2018-08-30T09:29:37.133Z,61.31
2018-08-30T09:31:17.392Z,60.69
2018-08-30T09:33:02.348Z,61.28
2018-08-30T09:34:49.254Z,60.68
2018-08-30T09:36:32.166Z,61.12
2018-08-30T09:38:08.700Z,60.51
2018-08-30T09:39:45.444Z,60.83
2018-08-30T09:41:23.245Z,61.21
2018-08-30T09:43:04.893Z,60.53
2018-08-30T09:44:53.765Z,61.13
2018-08-30T09:46:35.503Z,60.35
2018-08-30T09:48:16.894Z,61.07
2018-08-30T09:49:59.144Z,60.99
2018-08-30T09:51:44.184Z,60.44
2018-08-30T09:53:19.804Z,60.97
2018-08-30T09:54:55.934Z,60.41
2018-08-30T09:56:31.942Z,60.99
2018-08-30T09:58:09.185Z,60.32
2018-08-30T09:59:44.819Z,60.89
2018-08-30T10:01:30.711Z,60.33
2018-08-30T10:03:10.234Z,60.92
2018-08-30T10:06:18.282Z,60.89
2018-08-30T10:07:56.327Z,60.26
2018-08-30T10:09:32.953Z,60.38
2018-08-30T10:11:09.895Z,60.17
2018-08-30T10:12:50.234Z,60.03
2018-08-30T10:14:33.787Z,60.29
2018-08-30T10:16:10.389Z,60.18
2018-08-30T10:17:47.666Z,60.70
2018-08-30T10:19:30.247Z,60.60
2018-08-30T10:21:08.886Z,60.59
2018-08-30T10:22:52.133Z,60.61
2018-08-30T10:24:28.639Z,59.87
2018-08-30T10:26:07.924Z,60.05
2018-08-30T10:27:44.339Z,60.06
2018-08-30T10:29:20.630Z,59.82
2018-08-30T10:30:57.062Z,60.33
2018-08-30T10:32:32.864Z,59.76
2018-08-30T10:34:10.578Z,60.33
2018-08-30T10:37:22.491Z,60.36
2018-08-30T10:38:59.358Z,59.66
2018-08-30T10:40:36.163Z,60.23
2018-08-30T10:42:17.452Z,59.68
2018-08-30T10:43:54.278Z,59.59
2018-08-30T10:45:44.217Z,59.97
2018-08-30T10:49:21.197Z,60.06
2018-08-30T10:50:58.982Z,59.40
2018-08-30T10:52:36.869Z,59.29
2018-08-30T10:54:14.467Z,59.36
2018-08-30T10:55:51.237Z,59.05
2018-08-30T10:57:26.656Z,59.34
2018-08-30T10:59:04.737Z,59.75
2018-08-30T11:00:40.898Z,59.26
2018-08-30T11:02:17.173Z,59.17
2018-08-30T11:04:00.302Z,59.04
2018-08-30T11:05:47.651Z,59.15
2018-08-30T11:07:28.683Z,59.13
2018-08-30T11:09:07.627Z,59.61
2018-08-30T11:10:43.961Z,59.64
2018-08-30T11:12:20.747Z,59.39
2018-08-30T11:13:55.988Z,58.96
2018-08-30T11:15:31.730Z,58.90
2018-08-30T11:17:11.287Z,58.74
2018-08-30T11:18:47.255Z,58.84
2018-08-30T11:20:23.942Z,59.07
2018-08-30T11:22:16.960Z,58.85
2018-08-30T11:23:58.364Z,58.71
2018-08-30T11:25:34.315Z,59.22
2018-08-30T11:27:10.683Z,59.05
2018-08-30T11:28:47.932Z,58.56
2018-08-30T11:30:23.383Z,58.55
2018-08-30T11:32:00.601Z,59.09
2018-08-30T11:33:43.021Z,59.20
2018-08-30T11:35:20.107Z,58.81
2018-08-30T11:36:59.916Z,58.51
2018-08-30T11:40:21.143Z,58.30
2018-08-30T11:41:58.193Z,58.38
2018-08-30T11:43:51.513Z,58.23
2018-08-30T11:45:39.707Z,58.17
2018-08-30T11:47:17.661Z,58.87
2018-08-30T11:48:55.887Z,58.67
2018-08-30T11:50:32.598Z,58.75
2018-08-30T11:52:11.583Z,58.12
2018-08-30T11:53:47.333Z,58.48
2018-08-30T11:55:24.646Z,58.39
2018-08-30T11:57:03.495Z,58.33
2018-08-30T11:58:44.883Z,58.00
2018-08-30T12:00:23.698Z,58.32
2018-08-30T12:01:59.767Z,58.14
2018-08-30T12:03:35.587Z,57.78
2018-08-30T12:05:12.667Z,57.87
2018-08-30T12:06:49.438Z,58.12
2018-08-30T12:08:24.755Z,57.57
2018-08-30T12:10:00.100Z,57.65
2018-08-30T12:11:38.786Z,57.50
2018-08-30T12:13:14.556Z,58.07
2018-08-30T12:14:51.798Z,57.60
2018-08-30T12:16:27.738Z,57.98
2018-08-30T12:18:04.531Z,57.87
2018-08-30T12:19:39.795Z,57.29
2018-08-30T12:21:15.987Z,58.00
2018-08-30T12:22:51.261Z,57.90
2018-08-30T12:24:30.180Z,57.74
2018-08-30T12:26:05.556Z,57.57
2018-08-30T12:27:47.724Z,57.52
2018-08-30T12:29:28.598Z,57.63
2018-08-30T12:31:05.266Z,57.51
2018-08-30T12:32:40.606Z,57.53
2018-08-30T12:34:17.844Z,57.57
2018-08-30T12:35:55.866Z,57.59
2018-08-30T12:37:32.433Z,57.35
2018-08-30T12:39:12.141Z,57.46
2018-08-30T12:40:50.037Z,57.26
2018-08-30T12:42:25.734Z,56.72
2018-08-30T12:44:02.747Z,57.24
2018-08-30T12:45:39.222Z,57.13
2018-08-30T12:47:17.337Z,57.28
2018-08-30T12:48:54.918Z,56.58
2018-08-30T12:50:31.577Z,57.09
2018-08-30T12:52:08.304Z,57.16
2018-08-30T12:53:45.758Z,56.52
2018-08-30T12:55:25.237Z,56.98
2018-08-30T12:57:03.180Z,56.54
2018-08-30T12:58:38.589Z,56.46
2018-08-30T13:00:16.717Z,56.17
2018-08-30T13:01:52.170Z,56.17
2018-08-30T13:03:27.972Z,56.85
2018-08-30T13:05:04.645Z,56.69
2018-08-30T13:06:45.812Z,56.09
2018-08-30T13:08:21.003Z,56.06
2018-08-30T13:09:56.776Z,56.52
2018-08-30T13:11:33.578Z,56.52
2018-08-30T13:13:09.574Z,55.90
2018-08-30T13:14:47.542Z,56.11
2018-08-30T13:16:23.096Z,56.29
2018-08-30T13:17:58.413Z,56.03
2018-08-30T13:19:35.730Z,56.19
2018-08-30T13:21:16.766Z,56.18
2018-08-30T13:22:57.440Z,56.17
2018-08-30T13:24:33.093Z,56.09
2018-08-30T13:26:10.281Z,55.51
2018-08-30T13:27:45.670Z,55.47
2018-08-30T13:29:32.040Z,55.66
2018-08-30T13:31:08.410Z,56.03
2018-08-30T13:32:50.798Z,55.36
2018-08-30T13:34:40.466Z,55.29
2018-08-30T13:36:23.621Z,55.90
2018-08-30T13:38:06.472Z,55.67
2018-08-30T13:39:48.188Z,55.71
2018-08-30T13:43:47.266Z,54.93
2018-08-30T13:45:42.008Z,55.61
2018-08-30T13:47:21.015Z,55.33
2018-08-30T13:49:04.258Z,54.88
2018-08-30T13:50:43.507Z,54.81
2018-08-30T13:52:26.611Z,55.46
2018-08-30T13:54:17.287Z,55.30
2018-08-30T13:56:02.815Z,55.36
2018-08-30T13:57:49.703Z,55.21
2018-08-30T13:59:38.173Z,55.11
2018-08-30T14:01:20.185Z,55.07
2018-08-30T14:03:01.813Z,54.55
2018-08-30T14:04:38.351Z,54.42
2018-08-30T14:06:19.987Z,54.29
2018-08-30T14:07:56.281Z,54.27
2018-08-30T14:09:33.217Z,54.66
2018-08-30T14:11:10.900Z,54.59
2018-08-30T14:12:50.796Z,54.16
2018-08-30T14:14:27.640Z,54.43
2018-08-30T14:16:04.997Z,54.03
2018-08-30T14:17:40.989Z,54.56
2018-08-30T14:19:18.061Z,53.99
2018-08-30T14:20:54.435Z,53.85
2018-08-30T14:22:30.811Z,53.88
2018-08-30T14:24:08.540Z,53.78
2018-08-30T14:25:49.342Z,53.93
2018-08-30T14:27:28.281Z,54.09
2018-08-30T14:29:06.229Z,53.90
2018-08-30T14:30:42.101Z,54.07
2018-08-30T14:32:20.432Z,53.81
2018-08-30T14:33:58.686Z,54.26
2018-08-30T14:35:35.575Z,53.40
2018-08-30T14:37:12.620Z,53.35
2018-08-30T14:38:48.005Z,53.33
2018-08-30T14:40:23.788Z,53.27
2018-08-30T14:42:14.751Z,53.48
2018-08-30T14:44:06.294Z,53.30
2018-08-30T14:45:50.270Z,53.43
2018-08-30T14:47:29.891Z,53.55
2018-08-30T14:49:10.749Z,53.27
2018-08-30T14:52:23.820Z,53.48
2018-08-30T14:54:00.904Z,53.42
2018-08-30T14:55:37.353Z,53.39
2018-08-30T14:57:14.875Z,52.76
2018-08-30T14:58:50.814Z,53.34
2018-08-30T15:00:32.720Z,52.68
2018-08-30T15:02:08.927Z,53.17
2018-08-30T15:03:45.860Z,52.57
2018-08-30T15:05:22.564Z,52.88
2018-08-30T15:07:01.604Z,53.13
2018-08-30T15:08:38.504Z,52.48
2018-08-30T15:10:17.887Z,53.00
2018-08-30T15:11:55.868Z,52.31
2018-08-30T15:13:33.251Z,52.43
2018-08-30T15:15:09.573Z,52.19
2018-08-30T15:16:47.992Z,52.14
2018-08-30T15:18:24.085Z,52.74
2018-08-30T15:20:02.757Z,52.16
2018-08-30T15:21:38.746Z,52.67
2018-08-30T15:23:14.822Z,52.35
2018-08-30T15:24:55.448Z,52.01
2018-08-30T15:26:33.718Z,51.92
2018-08-30T15:28:08.935Z,52.10
2018-08-30T15:29:45.556Z,52.33
2018-08-30T15:31:20.798Z,52.33
2018-08-30T15:32:56.757Z,51.71
2018-08-30T15:34:38.921Z,51.92
2018-08-30T15:36:16.890Z,52.12
2018-08-30T15:37:53.846Z,51.55
2018-08-30T15:39:30.654Z,51.79
2018-08-30T15:41:06.902Z,51.50
2018-08-30T15:42:43.895Z,51.54
2018-08-30T15:44:19.132Z,52.05
2018-08-30T15:45:55.623Z,51.37
2018-08-30T15:47:31.213Z,51.53
2018-08-30T15:49:07.462Z,51.96
2018-08-30T15:50:43.261Z,51.44
2018-08-30T15:52:20.274Z,51.15
2018-08-30T15:53:55.396Z,51.07
2018-08-30T15:55:32.022Z,51.37
2018-08-30T15:57:08.753Z,51.25
2018-08-30T15:58:47.855Z,50.94
2018-08-30T16:00:25.706Z,51.43
2018-08-30T16:02:00.912Z,50.79
2018-08-30T16:03:37.176Z,51.34
2018-08-30T16:05:14.724Z,51.08
2018-08-30T16:06:50.693Z,51.39
2018-08-30T16:08:31.659Z,50.69
2018-08-30T16:10:08.230Z,50.64
2018-08-30T16:11:46.585Z,51.15
2018-08-30T16:13:22.807Z,50.85
2018-08-30T16:14:59.806Z,51.12
2018-08-30T16:16:36.043Z,50.44
2018-08-30T16:18:12.767Z,50.37
2018-08-30T16:19:50.496Z,51.06
2018-08-30T16:23:37.587Z,50.26
2018-08-30T16:25:12.773Z,50.75
2018-08-30T16:26:50.383Z,50.17
2018-08-30T16:28:28.073Z,50.16
2018-08-30T16:30:05.776Z,50.06
2018-08-30T16:31:47.356Z,50.65
2018-08-30T16:33:23.887Z,49.96
2018-08-30T16:34:59.319Z,50.04
2018-08-30T16:36:34.959Z,50.48
2018-08-30T16:38:10.316Z,50.21
2018-08-30T16:39:45.705Z,50.22
2018-08-30T16:41:21.707Z,50.12
2018-08-30T16:42:59.124Z,49.76
2018-08-30T16:44:35.821Z,49.88
2018-08-30T16:46:18.334Z,49.75
2018-08-30T16:48:06.741Z,49.63
2018-08-30T16:49:55.225Z,50.26
2018-08-30T16:51:31.752Z,49.47
2018-08-30T16:53:08.230Z,50.00
2018-08-30T16:54:45.061Z,49.33
2018-08-30T16:56:22.602Z,49.43
2018-08-30T16:57:59.723Z,50.07
2018-08-30T16:59:39.639Z,49.83
2018-08-30T17:01:17.268Z,49.40
2018-08-30T17:02:54.568Z,49.92
2018-08-30T17:04:33.908Z,49.36
2018-08-30T17:06:13.488Z,49.25
2018-08-30T17:07:49.716Z,49.13
2018-08-30T17:09:26.440Z,49.26
2018-08-30T17:11:03.985Z,49.34
2018-08-30T17:12:42.624Z,49.66
2018-08-30T17:14:18.437Z,48.93
2018-08-30T17:15:55.509Z,49.33
2018-08-30T17:17:36.011Z,48.96
2018-08-30T17:19:23.505Z,48.82
2018-08-30T17:21:02.623Z,49.20
2018-08-30T17:22:40.297Z,49.46
2018-08-30T17:24:18.876Z,49.00
2018-08-30T17:25:59.610Z,49.33
2018-08-30T17:27:35.587Z,48.97
2018-08-30T17:29:12.514Z,49.36
2018-08-30T17:30:53.699Z,48.79
2018-08-30T17:32:30.932Z,48.57
2018-08-30T17:34:08.467Z,48.58
2018-08-30T17:35:48.608Z,49.09
2018-08-30T17:37:31.718Z,48.99
2018-08-30T17:39:13.629Z,48.36
2018-08-30T17:40:51.067Z,48.90
2018-08-30T17:42:36.561Z,48.46
2018-08-30T17:44:19.530Z,48.89
2018-08-30T17:45:57.828Z,48.88
2018-08-30T17:47:33.028Z,48.52
2018-08-30T17:49:09.129Z,48.28
2018-08-30T17:50:49.321Z,48.78
2018-08-30T17:52:24.682Z,48.18
2018-08-30T17:54:03.332Z,48.46
2018-08-30T17:55:41.329Z,48.73
2018-08-30T17:57:25.928Z,48.77
2018-08-30T17:59:05.061Z,48.54
2018-08-30T18:00:47.423Z,48.67
2018-08-30T18:02:25.640Z,48.62
2018-08-30T18:04:07.348Z,48.42
2018-08-30T18:05:47.646Z,48.23
2018-08-30T18:07:32.369Z,48.32
2018-08-30T18:09:14.920Z,48.13
2018-08-30T18:10:51.577Z,47.78
2018-08-30T18:12:29.802Z,48.37
2018-08-30T18:14:05.589Z,47.73
2018-08-30T18:15:41.137Z,47.63
2018-08-30T18:17:18.558Z,48.28
2018-08-30T18:18:54.544Z,48.08
2018-08-30T18:20:30.674Z,48.18
2018-08-30T18:22:09.712Z,47.59
2018-08-30T18:23:45.461Z,47.87
2018-08-30T18:25:24.245Z,48.06
2018-08-30T18:26:59.802Z,48.09
2018-08-30T18:28:36.330Z,48.04
2018-08-30T18:30:16.261Z,47.96
2018-08-30T18:33:33.056Z,47.28
2018-08-30T18:35:11.301Z,47.93
2018-08-30T18:36:49.772Z,47.82
2018-08-30T18:38:30.592Z,47.31
2018-08-30T18:40:08.740Z,47.31
2018-08-30T18:41:45.256Z,47.28
2018-08-30T18:43:22.439Z,47.40
2018-08-30T18:45:06.076Z,47.78
2018-08-30T18:47:03.345Z,47.81
2018-08-30T18:49:04.407Z,47.10
2018-08-30T18:50:50.429Z,47.66
2018-08-30T18:52:27.680Z,47.52
2018-08-30T18:54:03.291Z,47.07
2018-08-30T18:55:38.689Z,46.98
2018-08-30T18:57:15.552Z,47.55
2018-08-30T18:58:52.379Z,47.64
2018-08-30T19:00:29.281Z,47.36
2018-08-30T19:02:08.615Z,47.61
2018-08-30T19:03:48.107Z,47.41
2018-08-30T19:05:25.585Z,47.12
2018-08-30T19:07:03.860Z,47.50
2018-08-30T19:08:39.076Z,47.42
2018-08-30T19:10:14.455Z,46.92
2018-08-30T19:11:49.769Z,46.92
2018-08-30T19:13:25.928Z,46.76
2018-08-30T19:15:07.228Z,47.37
2018-08-30T19:17:48.577Z,47.37
2018-08-30T19:19:29.311Z,46.74
2018-08-30T19:21:08.416Z,47.33
2018-08-30T19:22:44.336Z,46.67
2018-08-30T19:24:24.805Z,47.23
2018-08-30T19:26:04.391Z,47.17
2018-08-30T19:27:41.790Z,47.26
2018-08-30T19:29:17.930Z,47.21
2018-08-30T19:30:54.464Z,47.21
2018-08-30T19:32:35.457Z,46.69
2018-08-30T19:34:12.849Z,46.67
2018-08-30T19:35:54.582Z,47.23
2018-08-30T19:37:34.878Z,46.67
2018-08-30T19:39:14.096Z,46.62
2018-08-30T19:40:55.159Z,46.64
2018-08-30T19:42:33.867Z,46.56
2018-08-30T19:44:13.596Z,46.65
2018-08-30T19:45:53.449Z,47.15
2018-08-30T19:47:31.231Z,46.55
2018-08-30T19:49:10.304Z,47.09
2018-08-30T19:50:45.716Z,46.71
2018-08-30T19:52:23.724Z,46.78
2018-08-30T19:54:02.314Z,47.13
2018-08-30T19:55:37.516Z,46.51
2018-08-30T19:57:16.790Z,47.01
2018-08-30T19:58:53.505Z,46.68
2018-08-30T20:00:33.818Z,46.56
2018-08-30T20:02:11.364Z,47.25
2018-08-30T20:03:47.940Z,47.04
2018-08-30T20:05:24.496Z,47.06
2018-08-30T20:07:04.601Z,46.55
2018-08-30T20:08:41.583Z,46.57
2018-08-30T20:10:20.830Z,46.81
2018-08-30T20:11:58.915Z,46.29
2018-08-30T20:13:35.398Z,46.99
2018-08-30T20:15:15.578Z,46.43
2018-08-30T20:16:52.569Z,46.43
2018-08-30T20:18:33.721Z,46.96
2018-08-30T20:20:12.200Z,46.87
2018-08-30T20:21:52.169Z,46.38
2018-08-30T20:23:28.513Z,46.91
2018-08-30T20:25:03.936Z,46.37
2018-08-30T20:26:40.221Z,46.75
2018-08-30T20:28:15.640Z,46.50
2018-08-30T20:29:51.563Z,46.94
2018-08-30T20:31:32.332Z,46.40
2018-08-30T20:33:09.589Z,46.95
2018-08-30T20:34:44.945Z,47.12
2018-08-30T20:36:20.821Z,46.38
2018-08-30T20:37:56.410Z,46.15
2018-08-30T20:39:31.730Z,46.37
2018-08-30T20:41:09.693Z,46.85
2018-08-30T20:42:46.230Z,46.93
2018-08-30T20:44:22.653Z,46.89
2018-08-30T20:45:59.437Z,46.32
2018-08-30T20:47:35.780Z,46.91
2018-08-30T20:49:11.973Z,46.82
2018-08-30T20:50:47.499Z,46.94
2018-08-30T20:52:24.016Z,46.50
2018-08-30T20:54:02.613Z,46.08
2018-08-30T20:55:38.526Z,46.38
2018-08-30T20:57:14.970Z,46.33
2018-08-30T20:58:50.315Z,46.91
2018-08-30T21:00:27.458Z,46.88
2018-08-30T21:02:05.266Z,46.55
2018-08-30T21:03:42.805Z,46.95
2018-08-30T21:05:19.630Z,46.16
2018-08-30T21:06:55.184Z,46.92
2018-08-30T21:08:45.291Z,46.76
2018-08-30T21:10:30.404Z,46.43
2018-08-30T21:12:17.097Z,46.46
2018-08-30T21:13:55.307Z,46.36
2018-08-30T21:15:32.034Z,46.96
2018-08-30T21:17:10.482Z,46.43
2018-08-30T21:18:45.811Z,46.42
2018-08-30T21:20:21.567Z,47.05
2018-08-30T21:21:58.521Z,46.98